createdAt,value
2018-02-15T00:01:43.577Z,8.63
2018-02-15T00:04:12.734Z,9.07
2018-02-15T00:06:41.026Z,6.80
2018-02-15T00:09:10.113Z,8.70
2018-02-15T00:11:39.244Z,10.23
2018-02-15T00:14:07.512Z,9.20
2018-02-15T00:16:35.831Z,5.57
2018-02-15T00:19:05.484Z,6.47
2018-02-15T00:21:34.563Z,7.07
2018-02-15T00:24:03.587Z,8.50
2018-02-15T00:26:31.834Z,7.43
2018-02-15T00:29:00.936Z,7.30
2018-02-15T00:31:30.023Z,8.37
2018-02-15T00:33:59.116Z,5.00
2018-02-15T00:36:28.191Z,9.50
2018-02-15T00:38:56.492Z,9.47
2018-02-15T00:41:25.595Z,9.70
2018-02-15T00:43:54.627Z,8.67
2018-02-15T00:46:23.015Z,5.63
2018-02-15T00:48:51.282Z,9.07
2018-02-15T00:51:19.577Z,8.07
2018-02-15T00:53:48.630Z,9.83
2018-02-15T00:56:16.938Z,9.73
2018-02-15T00:58:45.192Z,5.20
2018-02-15T01:01:13.524Z,9.60
2018-02-15T01:03:41.898Z,10.80
2018-02-15T01:06:10.167Z,9.37
2018-02-15T01:08:38.434Z,9.10
2018-02-15T01:11:06.737Z,9.90
2018-02-15T01:13:35.033Z,11.53
2018-02-15T01:16:04.072Z,11.00
2018-02-15T01:18:32.760Z,9.87
2018-02-15T01:21:00.992Z,10.70
2018-02-15T01:23:29.348Z,10.50
2018-02-15T01:25:59.019Z,11.00
2018-02-15T01:28:27.421Z,9.50
2018-02-15T01:30:55.680Z,8.30
2018-02-15T01:33:24.010Z,11.00
2018-02-15T01:35:52.263Z,8.07
2018-02-15T01:38:20.507Z,9.63
2018-02-15T01:40:49.128Z,9.30
2018-02-15T01:43:18.147Z,9.00
2018-02-15T01:45:46.448Z,10.50
2018-02-15T01:48:14.718Z,9.57
2018-02-15T01:50:43.071Z,9.23
2018-02-15T01:53:12.101Z,11.17
2018-02-15T01:55:40.367Z,10.93
2018-02-15T01:58:08.762Z,8.37
2018-02-15T02:00:37.018Z,10.80
2018-02-15T02:03:05.336Z,11.57
2018-02-15T02:05:34.513Z,10.70
2018-02-15T02:08:02.815Z,11.80
2018-02-15T02:10:31.077Z,10.73
2018-02-15T02:12:59.399Z,4.27
2018-02-15T02:15:27.716Z,11.00
2018-02-15T02:17:56.071Z,10.03
2018-02-15T02:20:24.344Z,9.07
2018-02-15T02:22:52.608Z,8.67
2018-02-15T02:25:20.898Z,7.80
2018-02-15T02:27:49.205Z,5.40
2018-02-15T02:30:17.468Z,10.17
2018-02-15T02:32:45.795Z,11.77
2018-02-15T02:35:15.287Z,10.53
2018-02-15T02:37:43.628Z,9.87
2018-02-15T02:40:11.975Z,10.70
2018-02-15T02:42:41.129Z,10.10
2018-02-15T02:45:09.443Z,6.70
2018-02-15T02:47:38.461Z,10.07
2018-02-15T02:50:06.722Z,6.60
2018-02-15T02:52:35.055Z,10.63
2018-02-15T02:55:03.313Z,11.27
2018-02-15T02:57:31.560Z,5.63
2018-02-15T02:59:59.912Z,5.17
2018-02-15T03:02:28.974Z,11.73
2018-02-15T03:04:57.337Z,9.33
2018-02-15T03:07:25.614Z,11.23
2018-02-15T03:09:53.950Z,10.37
2018-02-15T03:12:23.036Z,9.57
2018-02-15T03:14:52.057Z,6.97
2018-02-15T03:17:20.483Z,9.63
2018-02-15T03:19:49.521Z,4.13
2018-02-15T03:22:18.674Z,13.27
2018-02-15T03:24:46.925Z,6.70
2018-02-15T03:27:15.188Z,12.00
2018-02-15T03:29:43.539Z,12.03
2018-02-15T03:32:11.814Z,11.17
2018-02-15T03:34:40.205Z,11.83
2018-02-15T03:37:08.480Z,11.40
2018-02-15T03:39:36.837Z,12.03
2018-02-15T03:42:05.874Z,11.73
2018-02-15T03:44:34.204Z,11.17
2018-02-15T03:47:03.260Z,10.47
2018-02-15T03:49:31.639Z,12.93
2018-02-15T03:51:59.927Z,10.60
2018-02-15T03:54:28.183Z,11.70
2018-02-15T03:56:56.577Z,11.23
2018-02-15T03:59:24.852Z,12.43
2018-02-15T04:01:53.153Z,7.33
2018-02-15T04:04:21.522Z,8.73
2018-02-15T04:06:49.773Z,8.20
2018-02-15T04:09:18.118Z,12.40
2018-02-15T04:11:46.425Z,7.30
2018-02-15T04:14:14.687Z,7.57
2018-02-15T04:16:43.067Z,13.00
2018-02-15T04:19:11.356Z,10.33
2018-02-15T04:21:39.669Z,11.73
2018-02-15T04:24:08.773Z,11.13
2018-02-15T04:26:37.888Z,13.80
2018-02-15T04:29:06.965Z,13.40
2018-02-15T04:31:36.009Z,16.13
2018-02-15T04:34:04.374Z,5.40
2018-02-15T04:36:32.639Z,8.83
2018-02-15T04:39:00.953Z,11.93
2018-02-15T04:41:29.264Z,14.50
2018-02-15T04:43:58.338Z,10.83
2018-02-15T04:46:26.638Z,9.00
2018-02-15T04:48:54.996Z,9.30
2018-02-15T04:51:24.007Z,9.33
2018-02-15T04:53:52.294Z,13.37
2018-02-15T04:56:21.391Z,8.80
2018-02-15T04:58:50.424Z,14.70
2018-02-15T05:01:18.720Z,12.10
2018-02-15T05:03:47.008Z,6.10
2018-02-15T05:06:15.346Z,16.03
2018-02-15T05:08:43.605Z,13.20
2018-02-15T05:11:11.942Z,14.30
2018-02-15T05:13:40.192Z,8.10
2018-02-15T05:16:08.494Z,5.60
2018-02-15T05:18:36.752Z,10.60
2018-02-15T05:21:05.004Z,8.33
2018-02-15T05:23:33.344Z,12.23
2018-02-15T05:26:02.424Z,13.97
2018-02-15T05:28:30.684Z,15.00
2018-02-15T05:30:59.059Z,14.30
2018-02-15T05:33:28.078Z,16.37
2018-02-15T05:35:56.381Z,11.93
2018-02-15T05:38:24.745Z,14.30
2018-02-15T05:40:53.889Z,13.20
2018-02-15T05:43:22.180Z,13.77
2018-02-15T05:45:50.492Z,6.30
2018-02-15T05:48:19.564Z,14.57
2018-02-15T05:50:47.843Z,6.87
2018-02-15T05:53:16.125Z,6.90
2018-02-15T05:55:44.491Z,12.70
2018-02-15T05:58:12.754Z,12.37
2018-02-15T06:00:41.090Z,10.67
2018-02-15T06:03:09.341Z,8.23
2018-02-15T06:05:38.364Z,13.33
2018-02-15T06:08:06.753Z,11.67
2018-02-15T06:10:35.005Z,14.13
2018-02-15T06:13:04.016Z,8.53
2018-02-15T06:15:32.311Z,10.80
2018-02-15T06:18:00.621Z,6.93
2018-02-15T06:20:28.925Z,13.40
2018-02-15T06:22:58.038Z,13.97
2018-02-15T06:25:26.311Z,13.20
2018-02-15T06:27:55.078Z,6.87
2018-02-15T06:30:24.154Z,11.87
2018-02-15T06:32:52.416Z,12.63
2018-02-15T06:35:20.708Z,7.50
2018-02-15T06:37:49.740Z,9.93
2018-02-15T06:40:18.121Z,13.90
2018-02-15T06:42:46.425Z,9.50
2018-02-15T06:45:14.683Z,10.27
2018-02-15T06:47:43.030Z,14.13
2018-02-15T06:50:12.058Z,10.90
2018-02-15T06:52:41.095Z,14.87
2018-02-15T06:55:09.448Z,10.23
2018-02-15T06:57:37.713Z,16.70
2018-02-15T07:00:06.084Z,13.63
2018-02-15T07:02:34.376Z,15.80
2018-02-15T07:05:02.669Z,16.27
2018-02-15T07:07:31.816Z,13.17
2018-02-15T07:10:00.139Z,16.77
2018-02-15T07:12:29.458Z,15.67
2018-02-15T07:14:57.754Z,15.50
2018-02-15T07:17:27.547Z,19.80
2018-02-15T07:19:55.812Z,14.70
2018-02-15T07:22:24.175Z,12.60
2018-02-15T07:24:52.529Z,13.30
2018-02-15T07:27:20.930Z,15.97
2018-02-15T07:29:49.197Z,11.93
2018-02-15T07:32:18.269Z,19.80
2018-02-15T07:34:46.541Z,13.43
2018-02-15T07:37:15.120Z,15.03
2018-02-15T07:39:44.150Z,14.67
2018-02-15T07:42:12.417Z,15.33
2018-02-15T07:44:40.815Z,10.70
2018-02-15T07:47:09.097Z,15.43
2018-02-15T07:49:38.457Z,18.93
2018-02-15T07:52:06.744Z,17.87
2018-02-15T07:54:35.126Z,17.30
2018-02-15T07:57:03.463Z,13.03
2018-02-15T07:59:32.555Z,17.30
2018-02-15T08:02:01.612Z,16.03
2018-02-15T08:04:29.983Z,20.20
2018-02-15T08:06:58.255Z,13.97
2018-02-15T08:09:26.574Z,17.23
2018-02-15T08:11:55.727Z,17.70
2018-02-15T08:14:24.017Z,14.80
2018-02-15T08:16:53.266Z,14.73
2018-02-15T08:19:22.299Z,14.70
2018-02-15T08:21:50.703Z,12.93
2018-02-15T08:24:19.067Z,13.43
2018-02-15T08:26:47.334Z,13.00
2018-02-15T08:29:15.660Z,13.97
2018-02-15T08:31:44.747Z,19.23
2018-02-15T08:34:13.030Z,16.93
2018-02-15T08:36:42.155Z,22.40
2018-02-15T08:39:10.524Z,16.00
2018-02-15T08:41:38.947Z,20.90
2018-02-15T08:44:07.252Z,11.47
2018-02-15T08:46:35.546Z,12.37
2018-02-15T08:49:04.759Z,17.77
2018-02-15T08:51:33.463Z,15.57
2018-02-15T08:54:01.810Z,17.37
2018-02-15T08:56:30.853Z,14.30
2018-02-15T08:58:59.178Z,12.70
2018-02-15T09:01:29.661Z,19.63
2018-02-15T09:03:58.141Z,10.60
2018-02-15T09:06:26.828Z,15.53
2018-02-15T09:08:56.163Z,11.00
2018-02-15T09:11:25.223Z,13.83
2018-02-15T09:13:53.528Z,18.37
2018-02-15T09:16:22.374Z,12.40
2018-02-15T09:18:50.694Z,11.30
2018-02-15T09:21:19.851Z,20.07
2018-02-15T09:23:48.917Z,11.50
2018-02-15T09:26:17.320Z,19.27
2018-02-15T09:28:45.587Z,16.93
2018-02-15T09:31:13.864Z,18.30
2018-02-15T09:33:43.357Z,17.77
2018-02-15T09:36:12.227Z,16.10
2018-02-15T09:38:41.708Z,13.37
2018-02-15T09:41:10.033Z,10.83
2018-02-15T09:43:38.362Z,13.90
2018-02-15T09:46:06.983Z,14.20
2018-02-15T09:48:35.707Z,12.67
2018-02-15T09:51:03.990Z,12.30
2018-02-15T09:53:33.110Z,12.90
2018-02-15T09:56:01.375Z,14.87
2018-02-15T09:58:29.651Z,14.37
2018-02-15T10:00:58.017Z,14.00
2018-02-15T10:03:26.277Z,12.93
2018-02-15T10:05:54.702Z,11.60
2018-02-15T10:08:23.072Z,11.70
2018-02-15T10:10:51.646Z,15.00
2018-02-15T10:13:19.903Z,16.20
2018-02-15T10:15:48.212Z,10.97
2018-02-15T10:18:16.568Z,15.03
2018-02-15T10:20:44.843Z,13.20
2018-02-15T10:23:13.148Z,16.50
2018-02-15T10:25:42.319Z,15.93
2018-02-15T10:28:10.647Z,13.03
2018-02-15T10:30:39.746Z,9.40
2018-02-15T10:33:08.812Z,10.60
2018-02-15T10:35:37.266Z,18.17
2018-02-15T10:38:06.976Z,14.67
2018-02-15T10:40:36.713Z,16.00
2018-02-15T10:43:05.125Z,12.00
2018-02-15T10:45:33.407Z,17.23
2018-02-15T10:48:01.730Z,11.43
2018-02-15T10:50:29.998Z,12.80
2018-02-15T10:52:58.686Z,11.70
2018-02-15T10:55:28.348Z,17.97
2018-02-15T10:57:56.675Z,12.20
2018-02-15T11:00:31.897Z,14.27
2018-02-15T11:03:05.819Z,13.03
2018-02-15T11:05:41.119Z,12.17
2018-02-15T11:08:10.462Z,11.93
2018-02-15T11:10:40.359Z,17.37
2018-02-15T11:13:08.757Z,13.47
2018-02-15T11:15:37.091Z,14.80
2018-02-15T11:18:05.397Z,17.77
2018-02-15T11:20:33.702Z,19.17
2018-02-15T11:23:02.055Z,10.17
2018-02-15T11:25:31.351Z,16.10
2018-02-15T11:28:00.330Z,15.57
2018-02-15T11:30:28.699Z,14.50
2018-02-15T11:32:57.387Z,16.80
2018-02-15T11:35:25.846Z,12.90
2018-02-15T11:37:56.034Z,14.10
2018-02-15T11:40:25.351Z,14.07
2018-02-15T11:42:53.616Z,15.07
2018-02-15T11:45:21.959Z,15.80
2018-02-15T11:47:50.280Z,11.83
2018-02-15T11:50:18.543Z,15.13
2018-02-15T11:52:46.928Z,13.50
2018-02-15T11:55:15.990Z,14.67
2018-02-15T11:57:44.589Z,12.63
2018-02-15T12:00:12.865Z,13.77
2018-02-15T12:02:41.180Z,18.40
2018-02-15T12:05:10.940Z,13.20
2018-02-15T12:07:39.803Z,17.67
2018-02-15T12:10:08.087Z,16.00
2018-02-15T12:12:36.640Z,19.17
2018-02-15T12:15:05.719Z,16.33
2018-02-15T12:17:34.679Z,14.13
2018-02-15T12:20:02.944Z,16.63
2018-02-15T12:22:33.103Z,11.83
2018-02-15T12:25:02.320Z,15.50
2018-02-15T12:27:31.345Z,20.00
2018-02-15T12:30:00.912Z,16.20
2018-02-15T12:32:30.700Z,19.03
2018-02-15T12:34:59.172Z,15.73
2018-02-15T12:37:27.444Z,17.43
2018-02-15T12:39:55.832Z,11.67
2018-02-15T12:42:24.134Z,17.47
2018-02-15T12:44:52.461Z,16.90
2018-02-15T12:47:20.789Z,12.30
2018-02-15T12:49:49.067Z,12.00
2018-02-15T12:52:17.446Z,14.17
2018-02-15T12:54:45.702Z,14.20
2018-02-15T12:57:13.985Z,18.93
2018-02-15T12:59:42.302Z,13.60
2018-02-15T13:02:11.676Z,18.20
2018-02-15T13:04:46.541Z,14.70
2018-02-15T13:07:17.045Z,13.60
2018-02-15T13:09:46.089Z,18.13
2018-02-15T13:20:23.617Z,16.33
2018-02-15T13:22:51.957Z,17.33
2018-02-15T13:25:21.000Z,13.27
2018-02-15T13:33:10.018Z,15.60
2018-02-15T13:35:38.384Z,18.37
2018-02-15T13:38:07.160Z,20.63
2018-02-15T13:40:35.464Z,12.27
2018-02-15T13:50:46.760Z,17.43
2018-02-15T13:53:15.040Z,20.27
2018-02-15T13:55:43.437Z,20.30
2018-02-15T13:58:11.726Z,18.10
2018-02-15T14:05:47.788Z,17.60
2018-02-15T14:08:16.140Z,13.87
2018-02-15T14:10:45.382Z,20.77
2018-02-15T14:13:13.677Z,15.63
2018-02-15T14:15:42.080Z,17.70
2018-02-15T14:18:11.118Z,18.40
2018-02-15T14:20:39.419Z,17.67
2018-02-15T14:23:08.580Z,22.77
2018-02-15T14:25:37.610Z,21.07
2018-02-15T14:28:05.901Z,18.47
2018-02-15T14:30:34.222Z,21.30
2018-02-15T14:33:02.625Z,15.57
2018-02-15T14:35:30.945Z,21.90
2018-02-15T14:38:00.037Z,19.30
2018-02-15T14:40:28.370Z,16.20
2018-02-15T14:42:57.478Z,17.20
2018-02-15T14:45:26.540Z,15.77
2018-02-15T14:47:54.877Z,16.07
2018-02-15T14:50:23.688Z,8.37
2018-02-15T14:52:53.544Z,15.60
2018-02-15T14:55:21.948Z,22.93
2018-02-15T14:57:50.272Z,15.00
2018-02-15T15:00:18.649Z,17.30
2018-02-15T15:02:47.658Z,14.57
2018-02-15T15:05:15.985Z,19.13
2018-02-15T15:07:44.554Z,13.70
2018-02-15T15:10:12.881Z,13.20
2018-02-15T15:12:42.003Z,21.73
2018-02-15T15:15:10.262Z,13.17
2018-02-15T15:17:38.569Z,22.57
2018-02-15T15:20:06.844Z,20.50
2018-02-15T15:22:36.752Z,22.10
2018-02-15T15:25:05.126Z,16.60
2018-02-15T15:27:33.605Z,17.87
2018-02-15T15:30:03.346Z,14.60
2018-02-15T15:32:31.676Z,14.53
2018-02-15T15:35:00.657Z,14.93
2018-02-15T15:37:28.973Z,18.40
2018-02-15T15:39:57.249Z,23.73
2018-02-15T15:42:25.559Z,18.80
2018-02-15T15:44:53.821Z,16.60
2018-02-15T15:47:22.159Z,19.33
2018-02-15T15:49:51.103Z,19.37
2018-02-15T15:52:20.418Z,19.90
2018-02-15T15:54:50.315Z,20.47
2018-02-15T15:57:18.622Z,22.70
2018-02-15T15:59:47.311Z,18.13
2018-02-15T16:02:16.459Z,25.00
2018-02-15T16:04:44.787Z,18.23
2018-02-15T16:07:13.061Z,16.97
2018-02-15T16:09:41.427Z,20.13
2018-02-15T16:12:11.260Z,20.73
2018-02-15T16:14:39.813Z,16.13
2018-02-15T16:17:08.086Z,15.53
2018-02-15T16:19:36.337Z,24.77
2018-02-15T16:22:04.674Z,17.20
2018-02-15T16:24:32.941Z,17.23
2018-02-15T16:27:01.364Z,17.80
2018-02-15T16:29:30.098Z,21.70
2018-02-15T16:31:59.225Z,25.40
2018-02-15T16:34:28.440Z,21.50
2018-02-15T16:36:57.538Z,22.83
2018-02-15T16:39:26.030Z,19.77
2018-02-15T16:41:54.386Z,24.30
2018-02-15T16:44:22.659Z,26.57
2018-02-15T16:46:51.095Z,13.33
2018-02-15T16:49:21.027Z,24.70
2018-02-15T16:51:50.546Z,21.00
2018-02-15T16:54:19.878Z,10.70
2018-02-15T16:56:49.026Z,17.60
2018-02-15T16:59:18.648Z,25.57
2018-02-15T17:01:46.921Z,12.20
2018-02-15T17:04:15.275Z,20.30
2018-02-15T17:06:46.086Z,20.00
2018-02-15T17:09:14.465Z,17.20
2018-02-15T17:11:42.785Z,16.77
2018-02-15T17:14:11.249Z,17.37
2018-02-15T17:16:40.277Z,11.93
2018-02-15T17:19:08.646Z,10.00
2018-02-15T17:21:36.915Z,20.87
2018-02-15T17:24:05.188Z,24.13
2018-02-15T17:26:33.528Z,15.90
2018-02-15T17:29:02.682Z,14.17
2018-02-15T17:31:31.139Z,16.60
2018-02-15T17:34:00.246Z,16.57
2018-02-15T17:36:29.341Z,21.07
2018-02-15T17:38:58.067Z,18.03
2018-02-15T17:41:26.416Z,16.13
2018-02-15T17:43:54.690Z,11.67
2018-02-15T17:46:24.227Z,20.30
2018-02-15T17:48:52.767Z,19.97
2018-02-15T17:51:21.066Z,16.70
2018-02-15T17:53:49.360Z,15.27
2018-02-15T17:56:17.711Z,30.27
2018-02-15T17:58:45.974Z,16.13
2018-02-15T18:01:14.246Z,19.97
2018-02-15T18:03:42.682Z,15.23
2018-02-15T18:06:10.977Z,19.47
2018-02-15T18:08:40.060Z,14.57
2018-02-15T18:11:08.329Z,20.60
2018-02-15T18:13:36.637Z,24.33
2018-02-15T18:16:04.922Z,24.00
2018-02-15T18:18:33.315Z,13.80
2018-02-15T18:21:02.623Z,25.80
2018-02-15T18:23:32.106Z,25.57
2018-02-15T18:26:00.425Z,16.60
2018-02-15T18:28:29.125Z,23.17
2018-02-15T18:30:58.030Z,18.73
2018-02-15T18:33:27.423Z,16.07
2018-02-15T18:35:56.376Z,22.87
2018-02-15T18:38:24.783Z,21.40
2018-02-15T18:40:53.278Z,19.93
2018-02-15T18:43:21.707Z,17.97
2018-02-15T18:45:49.987Z,20.90
2018-02-15T18:48:18.334Z,16.53
2018-02-15T18:50:47.433Z,26.30
2018-02-15T18:53:16.554Z,28.93
2018-02-15T18:55:44.857Z,26.40
2018-02-15T18:58:13.240Z,22.00
2018-02-15T19:00:41.507Z,14.27
2018-02-15T19:03:09.828Z,15.03
2018-02-15T19:05:38.104Z,24.90
2018-02-15T19:08:06.367Z,24.40
2018-02-15T19:10:34.759Z,31.70
2018-02-15T19:13:03.175Z,12.43
2018-02-15T19:15:31.562Z,25.87
2018-02-15T19:18:00.804Z,15.23
2018-02-15T19:20:29.086Z,18.83
2018-02-15T19:22:57.383Z,14.10
2018-02-15T19:25:26.398Z,16.97
2018-02-15T19:27:55.473Z,17.90
2018-02-15T19:30:25.395Z,21.57
2018-02-15T19:32:54.487Z,14.07
2018-02-15T19:35:24.155Z,25.70
2018-02-15T19:37:52.430Z,19.53
2018-02-15T19:40:20.935Z,25.00
2018-02-15T19:42:49.259Z,21.90
2018-02-15T19:45:18.066Z,24.97
2018-02-15T19:47:46.343Z,24.50
2018-02-15T19:50:14.677Z,20.00
2018-02-15T19:52:42.945Z,22.90
2018-02-15T19:55:11.972Z,16.60
2018-02-15T19:57:40.336Z,20.37
2018-02-15T20:00:08.591Z,18.63
2018-02-15T20:02:37.773Z,19.67
2018-02-15T20:05:06.119Z,21.40
2018-02-15T20:07:34.439Z,23.57
2018-02-15T20:10:03.694Z,11.43
2018-02-15T20:12:31.938Z,16.97
2018-02-15T20:15:00.257Z,29.70
2018-02-15T20:17:28.513Z,30.20
2018-02-15T20:20:02.432Z,32.50
2018-02-15T20:22:30.694Z,27.00
2018-02-15T20:24:59.015Z,13.70
2018-02-15T20:27:33.707Z,22.60
2018-02-15T20:30:02.009Z,22.97
2018-02-15T20:32:32.750Z,15.47
2018-02-15T20:35:01.355Z,20.27
2018-02-15T20:37:37.106Z,30.03
2018-02-15T20:40:11.782Z,9.50
2018-02-15T20:42:41.247Z,28.40
2018-02-15T20:45:10.957Z,25.80
2018-02-15T20:47:39.297Z,32.30
2018-02-15T20:50:13.182Z,27.90
2018-02-15T20:52:47.227Z,36.00
2018-02-15T20:55:21.533Z,33.07
2018-02-15T20:57:50.985Z,26.17
2018-02-15T21:00:21.471Z,25.67
2018-02-15T21:02:50.129Z,28.20
2018-02-15T21:05:18.434Z,15.77
2018-02-15T21:07:48.482Z,24.40
2018-02-15T21:10:16.793Z,23.23
2018-02-15T21:12:45.117Z,21.80
2018-02-15T21:15:14.303Z,16.70
2018-02-15T21:17:42.736Z,21.50
2018-02-15T21:20:11.627Z,22.60
2018-02-15T21:22:39.890Z,12.30
2018-02-15T21:25:08.198Z,23.20
2018-02-15T21:27:36.782Z,20.17
2018-02-15T21:30:05.979Z,19.83
2018-02-15T21:32:34.457Z,20.53
2018-02-15T21:35:02.773Z,24.47
2018-02-15T21:37:31.331Z,30.47
2018-02-15T21:39:59.591Z,23.27
2018-02-15T21:42:28.180Z,33.03
2018-02-15T21:44:56.474Z,13.50
2018-02-15T21:47:27.119Z,29.33
2018-02-15T21:49:56.466Z,25.33
2018-02-15T21:52:24.728Z,19.37
2018-02-15T21:54:53.330Z,16.70
2018-02-15T21:57:21.606Z,15.77
2018-02-15T21:59:49.929Z,28.17
2018-02-15T22:02:22.260Z,32.13
2018-02-15T22:04:50.651Z,27.37
2018-02-15T22:07:18.929Z,29.67
2018-02-15T22:09:47.252Z,11.47
2018-02-15T22:12:16.284Z,29.53
2018-02-15T22:14:44.605Z,26.10
2018-02-15T22:17:12.875Z,27.70
2018-02-15T22:19:41.448Z,28.97
2018-02-15T22:22:09.710Z,27.23
2018-02-15T22:24:38.066Z,22.40
2018-02-15T22:27:06.326Z,26.33
2018-02-15T22:29:34.602Z,23.37
2018-02-15T22:32:02.906Z,27.60
2018-02-15T22:34:32.076Z,27.37
2018-02-15T22:37:00.377Z,27.17
2018-02-15T22:39:28.992Z,24.10
2018-02-15T22:41:57.405Z,25.43
2018-02-15T22:44:26.528Z,22.90
2018-02-15T22:46:54.854Z,24.30
2018-02-15T22:49:23.124Z,21.07
2018-02-15T22:51:51.462Z,26.73
2018-02-15T22:54:20.609Z,25.90
2018-02-15T22:56:49.176Z,24.80
2018-02-15T22:59:17.446Z,26.50
2018-02-15T23:01:45.817Z,27.53
2018-02-15T23:04:14.100Z,27.13
2018-02-15T23:06:42.380Z,22.80
2018-02-15T23:09:10.692Z,25.40
2018-02-15T23:11:39.135Z,29.63
2018-02-15T23:14:07.504Z,25.90
2018-02-15T23:16:35.768Z,29.67
2018-02-15T23:19:04.098Z,27.77
2018-02-15T23:21:33.118Z,30.60
2018-02-15T23:24:01.515Z,28.47
2018-02-15T23:26:29.809Z,27.97
2018-02-15T23:28:58.865Z,29.80
2018-02-15T23:31:27.147Z,26.87
2018-02-15T23:33:55.545Z,25.07
2018-02-15T23:36:23.786Z,27.90
2018-02-15T23:38:52.904Z,28.90
2018-02-15T23:41:21.215Z,31.90
2018-02-15T23:43:49.589Z,14.60
2018-02-15T23:46:17.898Z,23.67
2018-02-15T23:48:47.020Z,24.30
2018-02-15T23:51:15.291Z,12.97
2018-02-15T23:53:44.387Z,19.70
2018-02-15T23:56:13.457Z,23.73
2018-02-15T23:58:41.761Z,11.83
